createdAt,value
2017-02-17T00:00:04.092Z,17.34
2017-02-17T00:01:14.310Z,17.31
2017-02-17T00:02:24.509Z,17.33
2017-02-17T00:03:33.819Z,17.41
2017-02-17T00:04:43.647Z,17.31
2017-02-17T00:05:53.849Z,17.3
2017-02-17T00:07:04.050Z,17.31
2017-02-17T00:08:13.361Z,17.33
2017-02-17T00:09:23.135Z,17.3
2017-02-17T00:10:33.810Z,17.26
2017-02-17T00:11:43.575Z,17.25
2017-02-17T00:12:53.356Z,17.19
2017-02-17T00:14:03.122Z,17.23
2017-02-17T00:15:12.890Z,17.28
2017-02-17T00:16:23.167Z,17.22
2017-02-17T00:17:32.497Z,17.23
2017-02-17T00:18:42.258Z,17.34
2017-02-17T00:19:51.991Z,17.28
2017-02-17T00:21:01.325Z,17.26
2017-02-17T00:22:11.594Z,17.25
2017-02-17T00:23:20.915Z,17.3
2017-02-17T00:24:30.236Z,17.28
2017-02-17T00:25:40.876Z,17.26
2017-02-17T00:26:50.643Z,17.22
2017-02-17T00:28:00.053Z,17.19
2017-02-17T00:29:09.806Z,17.12
2017-02-17T00:30:19.550Z,17.22
2017-02-17T00:31:29.756Z,17.19
2017-02-17T00:32:39.960Z,17.19
2017-02-17T00:33:49.765Z,17.22
2017-02-17T00:34:59.090Z,17.15
2017-02-17T00:36:08.847Z,17.22
2017-02-17T00:37:19.060Z,17.18
2017-02-17T00:38:29.254Z,17.19
2017-02-17T00:39:39.608Z,17.18
2017-02-17T00:40:48.944Z,17.15
2017-02-17T00:41:59.158Z,17.11
2017-02-17T00:43:08.465Z,17.08
2017-02-17T00:44:18.676Z,17.12
2017-02-17T00:45:28.513Z,17.12
2017-02-17T00:46:37.823Z,17.04
2017-02-17T00:47:48.035Z,17.19
2017-02-17T00:48:58.225Z,17.07
2017-02-17T00:50:07.546Z,17.12
2017-02-17T00:51:17.795Z,17.14
2017-02-17T00:52:27.532Z,17.14
2017-02-17T00:53:37.733Z,17.11
2017-02-17T00:54:47.524Z,17.11
2017-02-17T00:55:57.296Z,17.12
2017-02-17T00:57:07.097Z,17.11
2017-02-17T00:58:17.293Z,17.12
2017-02-17T00:59:27.504Z,17.14
2017-02-17T01:00:36.833Z,17.08
2017-02-17T01:01:46.149Z,17.07
2017-02-17T01:02:56.123Z,17.08
2017-02-17T01:04:05.448Z,17.11
2017-02-17T01:05:15.703Z,17.08
2017-02-17T01:06:25.038Z,17.08
2017-02-17T01:07:34.364Z,17.03
2017-02-17T01:08:44.157Z,17.12
2017-02-17T01:09:53.461Z,17.03
2017-02-17T01:11:03.636Z,17.08
2017-02-17T01:12:13.433Z,17.06
2017-02-17T01:13:22.748Z,17.07
2017-02-17T01:14:32.995Z,17.08
2017-02-17T01:15:42.744Z,17.08
2017-02-17T01:16:52.998Z,17.04
2017-02-17T01:18:02.312Z,17
2017-02-17T01:19:12.504Z,17.06
2017-02-17T01:20:21.868Z,17.04
2017-02-17T01:21:31.638Z,16.94
2017-02-17T01:22:41.829Z,16.93
2017-02-17T01:23:52.475Z,16.93
2017-02-17T01:25:02.248Z,17
2017-02-17T01:26:12.262Z,17.03
2017-02-17T01:27:22.480Z,17.03
2017-02-17T01:28:32.245Z,16.98
2017-02-17T01:29:41.586Z,16.98
2017-02-17T01:30:51.367Z,16.97
2017-02-17T01:32:01.624Z,16.94
2017-02-17T01:33:11.814Z,16.96
2017-02-17T01:34:21.579Z,16.94
2017-02-17T01:35:31.336Z,16.97
2017-02-17T01:36:41.536Z,16.94
2017-02-17T01:37:51.390Z,16.96
2017-02-17T01:39:00.739Z,16.97
2017-02-17T01:40:10.516Z,16.97
2017-02-17T01:41:20.719Z,16.93
2017-02-17T01:42:30.903Z,16.89
2017-02-17T01:43:40.707Z,16.96
2017-02-17T01:44:50.029Z,16.91
2017-02-17T01:45:59.361Z,16.89
2017-02-17T01:47:08.692Z,16.88
2017-02-17T01:48:18.472Z,16.91
2017-02-17T01:49:28.293Z,16.83
2017-02-17T01:50:38.493Z,16.89
2017-02-17T01:51:48.688Z,16.78
2017-02-17T01:52:58.437Z,16.83
2017-02-17T01:54:07.747Z,16.86
2017-02-17T01:55:18.155Z,16.83
2017-02-17T01:56:28.366Z,16.78
2017-02-17T01:57:38.562Z,16.81
2017-02-17T01:58:48.312Z,16.86
2017-02-17T01:59:58.072Z,16.81
2017-02-17T02:01:07.884Z,16.83
2017-02-17T02:02:17.237Z,16.81
2017-02-17T02:03:27.419Z,16.79
2017-02-17T02:04:37.188Z,16.83
2017-02-17T02:05:46.934Z,16.81
2017-02-17T02:06:56.755Z,16.79
2017-02-17T02:08:06.945Z,16.83
2017-02-17T02:09:16.261Z,16.81
2017-02-17T02:10:26.021Z,16.76
2017-02-17T02:11:35.783Z,16.76
2017-02-17T02:12:45.584Z,16.71
2017-02-17T02:13:55.782Z,16.81
2017-02-17T02:15:05.984Z,16.73
2017-02-17T02:16:15.748Z,16.75
2017-02-17T02:17:26.389Z,16.75
2017-02-17T02:18:36.187Z,16.79
2017-02-17T02:19:46.379Z,16.71
2017-02-17T02:20:56.578Z,16.76
2017-02-17T02:22:05.887Z,16.75
2017-02-17T02:23:15.644Z,16.76
2017-02-17T02:24:25.009Z,16.71
2017-02-17T02:25:34.342Z,16.76
2017-02-17T02:26:44.090Z,16.78
2017-02-17T02:27:54.297Z,16.71
2017-02-17T02:29:04.974Z,16.75
2017-02-17T02:30:14.343Z,16.75
2017-02-17T02:31:24.109Z,16.76
2017-02-17T02:32:33.461Z,16.71
2017-02-17T02:33:43.655Z,16.78
2017-02-17T02:34:53.418Z,16.78
2017-02-17T02:36:03.225Z,16.73
2017-02-17T02:37:13.421Z,16.64
2017-02-17T02:38:22.765Z,16.61
2017-02-17T02:39:32.955Z,16.68
2017-02-17T02:40:42.756Z,16.68
2017-02-17T02:41:52.129Z,16.64
2017-02-17T02:43:02.303Z,16.68
2017-02-17T02:44:13.350Z,16.68
2017-02-17T02:45:23.097Z,16.61
2017-02-17T02:46:33.288Z,16.63
2017-02-17T02:47:44.068Z,16.58
2017-02-17T02:48:53.384Z,16.63
2017-02-17T02:50:04.017Z,16.64
2017-02-17T02:51:13.779Z,16.64
2017-02-17T02:52:23.535Z,16.7
2017-02-17T02:53:33.429Z,16.63
2017-02-17T02:54:43.605Z,16.66
2017-02-17T02:55:53.363Z,16.5
2017-02-17T02:57:03.554Z,16.66
2017-02-17T02:58:13.758Z,16.5
2017-02-17T02:59:23.572Z,16.5
2017-02-17T03:00:32.892Z,16.49
2017-02-17T03:01:42.637Z,16.49
2017-02-17T03:02:52.854Z,16.5
2017-02-17T03:04:03.473Z,16.48
2017-02-17T03:05:12.841Z,16.52
2017-02-17T03:06:22.590Z,16.5
2017-02-17T03:07:31.925Z,16.48
2017-02-17T03:08:42.546Z,16.5
2017-02-17T03:09:52.301Z,16.48
2017-02-17T03:11:02.105Z,16.56
2017-02-17T03:12:12.284Z,16.57
2017-02-17T03:13:23.342Z,16.5
2017-02-17T03:14:32.647Z,16.43
2017-02-17T03:15:43.268Z,16.46
2017-02-17T03:16:53.228Z,16.57
2017-02-17T03:18:03.411Z,16.45
2017-02-17T03:19:13.628Z,16.34
2017-02-17T03:20:24.240Z,16.49
2017-02-17T03:21:33.998Z,16.53
2017-02-17T03:22:43.383Z,16.45
2017-02-17T03:23:53.157Z,16.43
2017-02-17T03:25:02.489Z,16.45
2017-02-17T03:26:12.682Z,16.48
2017-02-17T03:27:22.852Z,16.49
2017-02-17T03:28:32.642Z,16.49
2017-02-17T03:29:42.385Z,16.46
2017-02-17T03:30:52.160Z,16.41
2017-02-17T03:32:01.939Z,16.46
2017-02-17T03:33:12.138Z,16.34
2017-02-17T03:34:22.390Z,16.39
2017-02-17T03:35:32.573Z,16.45
2017-02-17T03:36:42.376Z,16.39
2017-02-17T03:37:52.137Z,16.45
2017-02-17T03:39:02.744Z,16.45
2017-02-17T03:40:12.985Z,16.46
2017-02-17T03:41:23.173Z,16.45
2017-02-17T03:42:33.822Z,16.42
2017-02-17T03:43:44.027Z,16.42
2017-02-17T03:44:54.214Z,16.46
2017-02-17T03:46:03.579Z,16.38
2017-02-17T03:47:12.882Z,16.39
2017-02-17T03:48:22.641Z,16.38
2017-02-17T03:49:32.830Z,16.38
2017-02-17T03:50:42.567Z,16.39
2017-02-17T03:51:52.817Z,16.38
2017-02-17T03:53:02.569Z,16.41
2017-02-17T03:54:13.207Z,16.41
2017-02-17T03:55:22.956Z,16.43
2017-02-17T03:56:32.278Z,16.39
2017-02-17T03:57:42.081Z,16.41
2017-02-17T03:58:52.285Z,16.38
2017-02-17T04:00:02.933Z,16.27
2017-02-17T04:01:12.691Z,16.38
2017-02-17T04:02:22.879Z,16.35
2017-02-17T04:03:32.368Z,16.39
2017-02-17T04:04:42.541Z,16.34
2017-02-17T04:05:52.294Z,16.39
2017-02-17T04:07:02.469Z,16.31
2017-02-17T04:08:12.232Z,16.35
2017-02-17T04:09:22.042Z,16.38
2017-02-17T04:10:31.778Z,16.35
2017-02-17T04:11:41.555Z,16.43
2017-02-17T04:12:51.753Z,16.28
2017-02-17T04:14:02.820Z,16.35
2017-02-17T04:15:13.047Z,16.35
2017-02-17T04:16:22.804Z,16.33
2017-02-17T04:17:32.118Z,16.31
2017-02-17T04:18:41.870Z,16.31
2017-02-17T04:19:52.051Z,16.3
2017-02-17T04:21:01.849Z,16.33
2017-02-17T04:22:12.036Z,16.27
2017-02-17T04:23:21.785Z,16.27
2017-02-17T04:24:31.532Z,16.27
2017-02-17T04:25:41.711Z,16.31
2017-02-17T04:26:52.389Z,16.33
2017-02-17T04:28:02.564Z,16.31
2017-02-17T04:29:12.758Z,16.27
2017-02-17T04:30:22.959Z,16.3
2017-02-17T04:31:33.157Z,16.28
2017-02-17T04:32:43.382Z,16.33
2017-02-17T04:33:52.720Z,16.27
2017-02-17T04:35:02.486Z,16.33
2017-02-17T04:36:12.228Z,16.31
2017-02-17T04:37:22.870Z,16.25
2017-02-17T04:38:33.115Z,16.3
2017-02-17T04:39:42.440Z,16.31
2017-02-17T04:40:52.185Z,16.3
2017-02-17T04:42:02.366Z,16.33
2017-02-17T04:43:12.193Z,16.28
2017-02-17T04:44:22.434Z,16.34
2017-02-17T04:45:31.743Z,16.23
2017-02-17T04:46:41.927Z,16.31
2017-02-17T04:47:51.684Z,16.33
2017-02-17T04:49:01.428Z,16.24
2017-02-17T04:50:12.254Z,16.25
2017-02-17T04:51:22.884Z,16.25
2017-02-17T04:52:33.077Z,16.2
2017-02-17T04:53:43.271Z,16.25
2017-02-17T04:54:53.475Z,16.3
2017-02-17T04:56:04.608Z,16.24
2017-02-17T04:57:14.354Z,16.25
2017-02-17T04:58:24.103Z,16.24
2017-02-17T04:59:34.782Z,16.27
2017-02-17T05:00:44.081Z,16.23
2017-02-17T05:01:53.878Z,16.21
2017-02-17T05:03:04.073Z,16.21
2017-02-17T05:04:13.847Z,16.21
2017-02-17T05:05:23.602Z,16.23
2017-02-17T05:06:33.835Z,16.17
2017-02-17T05:07:43.640Z,16.21
2017-02-17T05:08:52.957Z,16.21
2017-02-17T05:10:03.567Z,16.2
2017-02-17T05:11:14.199Z,16.17
2017-02-17T05:12:23.953Z,16.15
2017-02-17T05:13:33.783Z,16.15
2017-02-17T05:14:44.415Z,16.21
2017-02-17T05:15:53.733Z,16.17
2017-02-17T05:17:03.043Z,16.15
2017-02-17T05:18:13.211Z,16.11
2017-02-17T05:19:23.436Z,16.17
2017-02-17T05:20:33.629Z,16.15
2017-02-17T05:21:43.386Z,16.15
2017-02-17T05:22:53.127Z,16.2
2017-02-17T05:24:02.908Z,16.2
2017-02-17T05:25:13.150Z,16.17
2017-02-17T05:26:22.931Z,16.17
2017-02-17T05:27:32.236Z,16.24
2017-02-17T05:28:42.003Z,16.14
2017-02-17T05:29:51.339Z,16.2
2017-02-17T05:31:01.137Z,16.17
2017-02-17T05:32:10.882Z,16.12
2017-02-17T05:33:20.623Z,16.14
2017-02-17T05:34:29.948Z,16.08
2017-02-17T05:35:39.698Z,16.12
2017-02-17T05:36:49.935Z,16.21
2017-02-17T05:38:00.111Z,16.2
2017-02-17T05:39:10.292Z,16.12
2017-02-17T05:40:20.053Z,16.15
2017-02-17T05:41:29.797Z,16.24
2017-02-17T05:42:40.021Z,16.17
2017-02-17T05:43:49.781Z,16.17
2017-02-17T05:45:00.411Z,16.17
2017-02-17T05:46:10.593Z,16.2
2017-02-17T05:47:19.906Z,16.14
2017-02-17T05:48:30.153Z,16.15
2017-02-17T05:49:39.902Z,16.14
2017-02-17T05:50:50.108Z,16.15
2017-02-17T05:51:59.418Z,16.11
2017-02-17T05:53:09.638Z,16.12
2017-02-17T05:54:19.011Z,16.09
2017-02-17T05:55:29.623Z,16.12
2017-02-17T05:56:39.371Z,16.11
2017-02-17T05:57:48.692Z,16.15
2017-02-17T05:58:58.004Z,16.11
2017-02-17T06:00:08.713Z,16.11
2017-02-17T06:01:18.060Z,16.12
2017-02-17T06:02:28.255Z,16.14
2017-02-17T06:03:38.450Z,16.08
2017-02-17T06:04:48.650Z,16.05
2017-02-17T06:05:58.883Z,16.08
2017-02-17T06:07:09.093Z,16.11
2017-02-17T06:08:19.273Z,16.08
2017-02-17T06:09:29.036Z,16.05
2017-02-17T06:10:38.814Z,16.07
2017-02-17T06:11:48.670Z,16.09
2017-02-17T06:12:59.288Z,16.21
2017-02-17T06:14:09.061Z,16.21
2017-02-17T06:15:18.382Z,16.17
2017-02-17T06:16:27.689Z,16.09
2017-02-17T06:17:37.939Z,16.11
2017-02-17T06:18:47.691Z,16.11
2017-02-17T06:19:57.874Z,16.14
2017-02-17T06:21:08.064Z,16.08
2017-02-17T06:22:17.394Z,16.17
2017-02-17T06:23:27.201Z,16.09
2017-02-17T06:24:37.825Z,16.08
2017-02-17T06:25:47.998Z,16.08
2017-02-17T06:26:58.191Z,16.12
2017-02-17T06:28:07.937Z,16.11
2017-02-17T06:29:17.334Z,16.12
2017-02-17T06:30:27.076Z,16.14
2017-02-17T06:31:36.384Z,16.11
2017-02-17T06:32:46.573Z,16.12
2017-02-17T06:33:57.634Z,16.15
2017-02-17T06:35:08.076Z,16.09
2017-02-17T06:36:17.835Z,16.09
2017-02-17T06:37:28.013Z,16.04
2017-02-17T06:38:37.763Z,16.07
2017-02-17T06:39:47.086Z,16.07
2017-02-17T06:40:56.453Z,16.01
2017-02-17T06:42:06.679Z,16.08
2017-02-17T06:43:16.421Z,16.01
2017-02-17T06:44:26.166Z,16.01
2017-02-17T06:45:36.779Z,15.97
2017-02-17T06:46:47.159Z,16.04
2017-02-17T06:47:56.930Z,16.05
2017-02-17T06:49:07.137Z,16.07
2017-02-17T06:50:16.886Z,15.93
2017-02-17T06:51:26.217Z,16.05
2017-02-17T06:52:35.594Z,16.05
2017-02-17T06:53:45.323Z,16.02
2017-02-17T06:54:55.100Z,16.02
2017-02-17T06:56:04.408Z,16.04
2017-02-17T06:57:14.619Z,16
2017-02-17T06:58:23.976Z,15.97
2017-02-17T06:59:33.284Z,15.96
2017-02-17T07:00:43.493Z,15.96
2017-02-17T07:01:54.150Z,16.02
2017-02-17T07:03:03.932Z,15.94
2017-02-17T07:04:14.608Z,15.9
2017-02-17T07:05:24.361Z,15.94
2017-02-17T07:06:34.128Z,15.97
2017-02-17T07:07:43.870Z,15.96
2017-02-17T07:08:53.185Z,16.01
2017-02-17T07:10:02.991Z,16
2017-02-17T07:11:12.771Z,15.97
2017-02-17T07:12:22.982Z,16.04
2017-02-17T07:13:32.291Z,16.04
2017-02-17T07:14:42.492Z,16.05
2017-02-17T07:15:51.889Z,16.04
2017-02-17T07:17:01.206Z,16.05
2017-02-17T07:18:10.957Z,16
2017-02-17T07:19:21.161Z,16.07
2017-02-17T07:20:31.348Z,16.11
2017-02-17T07:21:41.586Z,16.11
2017-02-17T07:22:51.352Z,16.01
2017-02-17T07:24:01.106Z,16.09
2017-02-17T07:25:10.887Z,16.14
2017-02-17T07:26:20.642Z,16.12
2017-02-17T07:27:31.325Z,16.09
2017-02-17T07:28:41.501Z,16.11
2017-02-17T07:29:51.259Z,16.15
2017-02-17T07:31:01.004Z,16.12
2017-02-17T07:32:10.773Z,16.12
2017-02-17T07:33:20.142Z,16.11
2017-02-17T07:34:29.919Z,16.12
2017-02-17T07:35:39.697Z,16.12
2017-02-17T07:36:49.470Z,16.07
2017-02-17T07:37:59.654Z,16.12
2017-02-17T07:39:09.467Z,16.15
2017-02-17T07:40:18.788Z,16.02
2017-02-17T07:41:28.545Z,16.02
2017-02-17T07:42:39.603Z,16.01
2017-02-17T07:43:49.360Z,16.11
2017-02-17T07:44:58.862Z,16.12
2017-02-17T07:46:09.051Z,16.05
2017-02-17T07:47:19.268Z,16.08
2017-02-17T07:48:29.477Z,16.12
2017-02-17T07:49:39.221Z,16.08
2017-02-17T07:50:49.015Z,16.12
2017-02-17T07:51:58.775Z,16.08
2017-02-17T07:53:08.974Z,16.12
2017-02-17T07:54:18.277Z,16.05
2017-02-17T07:55:28.011Z,16.05
2017-02-17T07:56:37.817Z,16.2
2017-02-17T07:57:47.567Z,16.17
2017-02-17T07:58:57.744Z,16.2
2017-02-17T08:00:07.516Z,16.12
2017-02-17T08:01:16.846Z,16.09
2017-02-17T08:02:27.098Z,16.14
2017-02-17T08:03:36.864Z,16.12
2017-02-17T08:04:46.618Z,16.09
2017-02-17T08:05:55.934Z,16.21
2017-02-17T08:07:05.254Z,16.17
2017-02-17T08:08:15.055Z,16.15
2017-02-17T08:09:25.694Z,16.2
2017-02-17T08:10:35.872Z,16.17
2017-02-17T08:11:46.051Z,16.24
2017-02-17T08:12:56.224Z,16.17
2017-02-17T08:14:06.475Z,16.23
2017-02-17T08:15:15.779Z,16.23
2017-02-17T08:16:26.413Z,16.23
2017-02-17T08:17:36.191Z,16.21
2017-02-17T08:18:46.394Z,16.17
2017-02-17T08:19:56.221Z,16.27
2017-02-17T08:21:06.405Z,16.17
2017-02-17T08:22:16.167Z,16.14
2017-02-17T08:23:25.931Z,16.23
2017-02-17T08:24:36.116Z,16.2
2017-02-17T08:25:46.353Z,16.23
2017-02-17T08:26:56.555Z,16.27
2017-02-17T08:28:07.184Z,16.27
2017-02-17T08:29:17.377Z,16.25
2017-02-17T08:30:27.568Z,16.25
2017-02-17T08:31:36.975Z,16.25
2017-02-17T08:32:46.737Z,16.24
2017-02-17T08:33:56.482Z,16.21
2017-02-17T08:35:06.668Z,16.28
2017-02-17T08:36:15.981Z,16.21
2017-02-17T08:37:26.667Z,16.23
2017-02-17T08:38:36.857Z,16.23
2017-02-17T08:39:46.618Z,16.2
2017-02-17T08:40:55.951Z,16.17
2017-02-17T08:42:05.255Z,16.27
2017-02-17T08:43:15.583Z,16.2
2017-02-17T08:44:25.329Z,16.2
2017-02-17T08:45:35.091Z,16.12
2017-02-17T08:46:44.399Z,16.23
2017-02-17T08:47:54.574Z,16.08
2017-02-17T08:49:04.389Z,16.11
2017-02-17T08:50:14.136Z,16.05
2017-02-17T08:51:23.457Z,16.17
2017-02-17T08:52:33.257Z,16.11
2017-02-17T08:53:43.007Z,16.2
2017-02-17T08:54:52.845Z,16.2
2017-02-17T08:56:03.466Z,16.21
2017-02-17T08:57:14.100Z,16.08
2017-02-17T08:58:23.851Z,16.11
2017-02-17T08:59:34.041Z,16.05
2017-02-17T09:00:44.288Z,16.11
2017-02-17T09:01:54.084Z,16.17
2017-02-17T09:03:04.296Z,16.2
2017-02-17T09:04:14.510Z,16.15
2017-02-17T09:05:24.268Z,16.23
2017-02-17T09:06:34.070Z,16.2
2017-02-17T09:07:43.393Z,16.21
2017-02-17T09:08:53.590Z,16.28
2017-02-17T09:10:03.781Z,16.21
2017-02-17T09:11:13.085Z,16.3
2017-02-17T09:12:23.768Z,16.3
2017-02-17T09:13:33.108Z,16.33
2017-02-17T09:14:42.857Z,16.34
2017-02-17T09:15:52.603Z,16.42
2017-02-17T09:17:01.968Z,16.42
2017-02-17T09:18:11.773Z,16.42
2017-02-17T09:19:21.523Z,16.48
2017-02-17T09:20:31.270Z,16.5
2017-02-17T09:21:41.451Z,16.53
2017-02-17T09:22:50.761Z,16.56
2017-02-17T09:24:00.564Z,16.58
2017-02-17T09:25:10.323Z,16.5
2017-02-17T09:26:20.076Z,16.66
2017-02-17T09:27:29.393Z,16.67
2017-02-17T09:28:39.584Z,16.61
2017-02-17T09:29:49.100Z,16.64
2017-02-17T09:30:59.305Z,16.73
2017-02-17T09:32:09.922Z,16.81
2017-02-17T09:33:19.697Z,16.75
2017-02-17T09:34:29.893Z,16.79
2017-02-17T09:35:39.815Z,16.79
2017-02-17T09:36:49.139Z,16.82
2017-02-17T09:37:58.881Z,16.78
2017-02-17T09:39:08.633Z,16.81
2017-02-17T09:40:18.391Z,16.85
2017-02-17T09:41:27.760Z,16.83
2017-02-17T09:42:38.389Z,16.86
2017-02-17T09:43:48.602Z,16.89
2017-02-17T09:44:58.785Z,16.97
2017-02-17T09:46:08.991Z,16.89
2017-02-17T09:47:18.779Z,16.86
2017-02-17T09:48:28.956Z,16.88
2017-02-17T09:49:38.705Z,16.93
2017-02-17T09:50:49.335Z,16.91
2017-02-17T09:51:59.527Z,16.94
2017-02-17T09:53:10.232Z,16.83
2017-02-17T09:54:19.545Z,16.94
2017-02-17T09:55:29.726Z,16.96
2017-02-17T09:56:39.901Z,16.91
2017-02-17T09:57:49.278Z,17.08
2017-02-17T09:58:59.657Z,17.12
2017-02-17T10:00:08.969Z,17.11
2017-02-17T10:01:18.294Z,17.11
2017-02-17T10:02:27.609Z,17.21
2017-02-17T10:03:37.352Z,17.21
2017-02-17T10:04:47.184Z,17.3
2017-02-17T10:05:57.820Z,17.37
2017-02-17T10:07:08.018Z,17.38
2017-02-17T10:08:17.767Z,17.34
2017-02-17T10:09:27.527Z,17.3
2017-02-17T10:10:37.775Z,17.3
2017-02-17T10:11:47.979Z,17.23
2017-02-17T10:12:57.284Z,17.28
2017-02-17T10:14:07.497Z,17.33
2017-02-17T10:15:17.686Z,17.19
2017-02-17T10:16:27.499Z,17.22
2017-02-17T10:17:37.270Z,17.22
2017-02-17T10:18:46.568Z,17.18
2017-02-17T10:19:56.319Z,17.22
2017-02-17T10:21:06.518Z,17.21
2017-02-17T10:22:16.524Z,17.18
2017-02-17T10:23:26.264Z,17.22
2017-02-17T10:24:36.908Z,17.19
2017-02-17T10:25:47.115Z,17.3
2017-02-17T10:26:56.441Z,17.3
2017-02-17T10:28:06.242Z,17.36
2017-02-17T10:29:15.547Z,17.44
2017-02-17T10:30:24.850Z,17.49
2017-02-17T10:31:35.028Z,17.51
2017-02-17T10:32:44.361Z,17.54
2017-02-17T10:33:55.148Z,17.56
2017-02-17T10:35:04.915Z,17.58
2017-02-17T10:36:15.543Z,17.74
2017-02-17T10:37:25.287Z,17.71
2017-02-17T10:38:34.608Z,17.74
2017-02-17T10:39:45.293Z,17.66
2017-02-17T10:40:54.613Z,17.56
2017-02-17T10:42:04.354Z,17.56
2017-02-17T10:43:14.527Z,17.56
2017-02-17T10:44:24.712Z,17.52
2017-02-17T10:45:35.400Z,17.52
2017-02-17T10:46:45.583Z,17.54
2017-02-17T10:47:55.768Z,17.51
2017-02-17T10:49:05.517Z,17.48
2017-02-17T10:50:14.884Z,17.46
2017-02-17T10:51:24.692Z,17.43
2017-02-17T10:52:34.895Z,17.37
2017-02-17T10:53:44.220Z,17.38
2017-02-17T10:54:53.969Z,17.26
2017-02-17T10:56:03.718Z,17.21
2017-02-17T10:57:13.960Z,17.28
2017-02-17T10:58:23.304Z,17.16
2017-02-17T10:59:33.952Z,17.21
2017-02-17T11:00:44.167Z,17.21
2017-02-17T11:01:54.382Z,17.15
2017-02-17T11:03:04.624Z,17.06
2017-02-17T11:04:15.241Z,17.16
2017-02-17T11:05:24.986Z,17.18
2017-02-17T11:06:34.299Z,17.12
2017-02-17T11:07:44.098Z,17.11
2017-02-17T11:08:53.911Z,17.03
2017-02-17T11:10:03.660Z,17.04
2017-02-17T11:11:13.392Z,17.04
2017-02-17T11:12:23.595Z,16.93
2017-02-17T11:13:32.935Z,16.98
2017-02-17T11:14:43.610Z,17
2017-02-17T11:15:53.838Z,16.93
2017-02-17T11:17:03.150Z,16.89
2017-02-17T11:18:13.821Z,16.91
2017-02-17T11:19:23.585Z,16.86
2017-02-17T11:20:33.386Z,16.79
2017-02-17T11:21:43.578Z,16.79
2017-02-17T11:22:53.316Z,16.81
2017-02-17T11:24:03.497Z,16.76
2017-02-17T11:25:13.271Z,16.73
2017-02-17T11:26:23.946Z,16.75
2017-02-17T11:27:33.705Z,16.73
2017-02-17T11:28:43.491Z,16.75
2017-02-17T11:29:53.255Z,16.78
2017-02-17T11:31:02.999Z,16.66
2017-02-17T11:32:13.229Z,16.75
2017-02-17T11:33:22.975Z,16.66
2017-02-17T11:34:33.635Z,16.66
2017-02-17T11:35:43.385Z,16.64
2017-02-17T11:36:53.139Z,16.68
2017-02-17T11:38:02.508Z,16.63
2017-02-17T11:39:12.253Z,16.68
2017-02-17T11:40:22.019Z,16.64
2017-02-17T11:41:31.324Z,16.63
2017-02-17T11:42:41.965Z,16.61
2017-02-17T11:43:52.309Z,16.58
2017-02-17T11:45:02.052Z,16.61
2017-02-17T11:46:11.368Z,16.61
2017-02-17T11:47:22.009Z,16.68
2017-02-17T11:48:32.191Z,16.58
2017-02-17T11:49:42.859Z,16.61
2017-02-17T11:50:52.621Z,16.6
2017-02-17T11:52:01.959Z,16.67
2017-02-17T11:53:12.155Z,16.63
2017-02-17T11:54:21.901Z,16.63
2017-02-17T11:55:31.704Z,16.63
2017-02-17T11:56:41.882Z,16.63
2017-02-17T11:57:52.519Z,16.7
2017-02-17T11:59:01.822Z,16.67
2017-02-17T12:00:11.581Z,16.71
2017-02-17T12:01:22.255Z,16.7
2017-02-17T12:02:32.452Z,16.75
2017-02-17T12:03:42.629Z,16.75
2017-02-17T12:04:52.368Z,16.71
2017-02-17T12:06:02.155Z,16.75
2017-02-17T12:07:11.951Z,16.76
2017-02-17T12:08:22.129Z,16.64
2017-02-17T12:09:31.905Z,16.68
2017-02-17T12:10:42.553Z,16.63
2017-02-17T12:11:52.337Z,16.58
2017-02-17T12:13:02.134Z,16.56
2017-02-17T12:14:11.885Z,16.61
2017-02-17T12:15:22.064Z,16.64
2017-02-17T12:16:31.814Z,16.53
2017-02-17T12:17:41.997Z,16.52
2017-02-17T12:18:51.944Z,16.5
2017-02-17T12:20:01.712Z,16.5
2017-02-17T12:21:11.906Z,16.48
2017-02-17T12:22:21.697Z,16.5
2017-02-17T12:23:31.461Z,16.52
2017-02-17T12:24:41.691Z,16.49
2017-02-17T12:25:51.914Z,16.45
2017-02-17T12:27:01.230Z,16.53
2017-02-17T12:28:11.413Z,16.58
2017-02-17T12:29:21.604Z,16.45
2017-02-17T12:30:31.856Z,16.52
2017-02-17T12:31:42.059Z,16.56
2017-02-17T12:32:52.275Z,16.46
2017-02-17T12:34:01.598Z,16.52
2017-02-17T12:35:11.343Z,16.5
2017-02-17T12:36:21.135Z,16.49
2017-02-17T12:37:30.882Z,16.46
2017-02-17T12:38:41.065Z,16.48
2017-02-17T12:39:50.831Z,16.46
2017-02-17T12:41:00.148Z,16.46
2017-02-17T12:42:10.390Z,16.5
2017-02-17T12:43:20.135Z,16.53
2017-02-17T12:44:29.440Z,16.41
2017-02-17T12:45:39.180Z,16.45
2017-02-17T12:46:48.938Z,16.49
2017-02-17T12:47:58.321Z,16.53
2017-02-17T12:49:08.508Z,16.49
2017-02-17T12:50:18.283Z,16.48
2017-02-17T12:51:28.464Z,16.43
2017-02-17T12:52:38.213Z,16.46
2017-02-17T12:53:48.893Z,16.42
2017-02-17T12:54:59.581Z,16.48
2017-02-17T12:56:08.899Z,16.49
2017-02-17T12:57:19.539Z,16.5
2017-02-17T12:58:29.288Z,16.57
2017-02-17T12:59:39.535Z,16.57
2017-02-17T13:00:48.864Z,16.53
2017-02-17T13:01:59.076Z,16.57
2017-02-17T13:03:09.726Z,16.46
2017-02-17T13:04:19.918Z,16.6
2017-02-17T13:05:30.559Z,16.56
2017-02-17T13:06:40.361Z,16.52
2017-02-17T13:07:50.124Z,16.5
2017-02-17T13:09:00.301Z,16.56
2017-02-17T13:10:09.642Z,16.52
2017-02-17T13:11:19.869Z,16.6
2017-02-17T13:12:30.046Z,16.66
2017-02-17T13:13:40.683Z,16.67
2017-02-17T13:14:50.868Z,16.61
2017-02-17T13:16:00.620Z,16.63
2017-02-17T13:17:10.418Z,16.63
2017-02-17T13:18:20.194Z,16.63
2017-02-17T13:19:29.518Z,16.64
2017-02-17T13:20:39.284Z,16.68
2017-02-17T13:21:49.461Z,16.63
2017-02-17T13:22:59.692Z,16.46
2017-02-17T13:24:09.866Z,16.48
2017-02-17T13:25:19.617Z,16.53
2017-02-17T13:26:28.930Z,16.53
2017-02-17T13:27:38.247Z,16.49
2017-02-17T13:28:48.496Z,16.45
2017-02-17T13:29:58.242Z,16.48
2017-02-17T13:31:07.992Z,16.43
2017-02-17T13:32:18.641Z,16.57
2017-02-17T13:33:28.821Z,16.52
2017-02-17T13:34:38.197Z,16.46
2017-02-17T13:35:48.377Z,16.46
2017-02-17T13:36:57.687Z,16.49
2017-02-17T13:38:07.012Z,16.46
2017-02-17T13:39:16.323Z,16.5
2017-02-17T13:40:26.128Z,16.5
2017-02-17T13:41:36.312Z,16.56
2017-02-17T13:42:46.489Z,16.5
2017-02-17T13:43:56.244Z,16.57
2017-02-17T13:45:06.004Z,16.61
2017-02-17T13:46:16.242Z,16.63
2017-02-17T13:47:26.441Z,16.61
2017-02-17T13:48:36.203Z,16.68
2017-02-17T13:49:45.512Z,16.6
2017-02-17T13:50:55.273Z,16.5
2017-02-17T13:52:05.216Z,16.6
2017-02-17T13:53:15.399Z,16.46
2017-02-17T13:54:25.169Z,16.5
2017-02-17T13:55:34.941Z,16.45
2017-02-17T13:56:45.140Z,16.48
2017-02-17T13:57:54.946Z,16.58
2017-02-17T13:59:04.279Z,16.56
2017-02-17T14:00:14.023Z,16.48
2017-02-17T14:01:23.777Z,16.5
2017-02-17T14:02:33.514Z,16.46
2017-02-17T14:03:44.188Z,16.41
2017-02-17T14:04:53.489Z,16.49
2017-02-17T14:06:03.233Z,16.56
2017-02-17T14:07:12.571Z,16.42
2017-02-17T14:08:22.750Z,16.49
2017-02-17T14:09:33.004Z,16.43
2017-02-17T14:10:43.185Z,16.39
2017-02-17T14:11:52.522Z,16.45
2017-02-17T14:13:02.727Z,16.45
2017-02-17T14:14:12.937Z,16.41
2017-02-17T14:15:22.765Z,16.45
2017-02-17T14:16:32.956Z,16.42
2017-02-17T14:17:43.160Z,16.35
2017-02-17T14:18:53.800Z,16.38
2017-02-17T14:20:03.984Z,16.38
2017-02-17T14:21:14.341Z,16.31
2017-02-17T14:22:24.090Z,16.34
2017-02-17T14:23:33.433Z,16.33
2017-02-17T14:24:43.197Z,16.38
2017-02-17T14:25:52.927Z,16.35
2017-02-17T14:27:03.634Z,16.3
2017-02-17T14:28:12.936Z,16.38
2017-02-17T14:29:23.133Z,16.33
2017-02-17T14:30:32.926Z,16.35
2017-02-17T14:31:43.110Z,16.24
2017-02-17T14:32:52.930Z,16.3
2017-02-17T14:34:02.686Z,16.34
2017-02-17T14:35:12.432Z,16.33
2017-02-17T14:36:21.742Z,16.33
2017-02-17T14:37:31.477Z,16.41
2017-02-17T14:38:40.861Z,16.38
2017-02-17T14:39:50.618Z,16.39
2017-02-17T14:41:00.376Z,16.39
2017-02-17T14:42:10.557Z,16.41
2017-02-17T14:43:19.875Z,16.38
2017-02-17T14:44:29.256Z,16.39
2017-02-17T14:45:38.595Z,16.38
2017-02-17T14:46:48.790Z,16.33
2017-02-17T14:47:59.007Z,16.33
2017-02-17T14:49:08.769Z,16.31
2017-02-17T14:50:19.466Z,16.33
2017-02-17T14:51:29.214Z,16.34
2017-02-17T14:52:39.843Z,16.31
2017-02-17T14:53:49.612Z,16.31
2017-02-17T14:54:59.378Z,16.35
2017-02-17T14:56:09.179Z,16.28
2017-02-17T14:57:18.499Z,16.21
2017-02-17T14:58:28.687Z,16.3
2017-02-17T14:59:38.426Z,16.23
2017-02-17T15:00:48.192Z,16.21
2017-02-17T15:01:57.559Z,16.21
2017-02-17T15:03:07.807Z,16.23